sensor_id;sensor_type;location;lat;lon;timestamp;P1;durP1;ratioP1;P2;durP2;ratioP2
44358;SDS011;30077;52.474;13.326;2023-11-19T00:03:52;16.30;;;10.50;;
44358;SDS011;30077;52.474;13.326;2023-11-19T00:13:53;15.70;;;10.85;;
44358;SDS011;30077;52.474;13.326;2023-11-19T00:23:54;15.80;;;9.75;;
44358;SDS011;30077;52.474;13.326;2023-11-19T00:33:55;16.27;;;9.90;;
44358;SDS011;30077;52.474;13.326;2023-11-19T00:43:56;19.65;;;10.95;;
44358;SDS011;30077;52.474;13.326;2023-11-19T00:53:57;14.50;;;9.00;;
44358;SDS011;30077;52.474;13.326;2023-11-19T01:03:59;16.48;;;10.13;;
44358;SDS011;30077;52.474;13.326;2023-11-19T01:14:00;13.27;;;8.05;;
44358;SDS011;30077;52.474;13.326;2023-11-19T01:24:01;14.25;;;9.48;;
44358;SDS011;30077;52.474;13.326;2023-11-19T01:34:03;13.25;;;8.90;;
44358;SDS011;30077;52.474;13.326;2023-11-19T01:44:08;12.93;;;8.32;;
44358;SDS011;30077;52.474;13.326;2023-11-19T01:54:12;17.92;;;8.77;;
44358;SDS011;30077;52.474;13.326;2023-11-19T02:04:13;12.68;;;8.73;;
44358;SDS011;30077;52.474;13.326;2023-11-19T02:14:14;18.10;;;8.50;;
44358;SDS011;30077;52.474;13.326;2023-11-19T02:24:15;15.30;;;8.43;;
44358;SDS011;30077;52.474;13.326;2023-11-19T02:34:21;16.33;;;8.10;;
44358;SDS011;30077;52.474;13.326;2023-11-19T02:44:22;13.10;;;7.50;;
44358;SDS011;30077;52.474;13.326;2023-11-19T02:54:23;10.25;;;6.95;;
44358;SDS011;30077;52.474;13.326;2023-11-19T03:04:27;10.45;;;6.78;;
44358;SDS011;30077;52.474;13.326;2023-11-19T03:14:28;11.15;;;6.20;;
44358;SDS011;30077;52.474;13.326;2023-11-19T03:24:29;9.50;;;6.43;;
44358;SDS011;30077;52.474;13.326;2023-11-19T03:34:29;10.13;;;6.45;;
44358;SDS011;30077;52.474;13.326;2023-11-19T03:44:30;10.13;;;6.85;;
44358;SDS011;30077;52.474;13.326;2023-11-19T03:54:31;11.70;;;8.13;;
44358;SDS011;30077;52.474;13.326;2023-11-19T04:04:32;12.15;;;8.18;;
44358;SDS011;30077;52.474;13.326;2023-11-19T04:14:33;14.52;;;8.65;;
44358;SDS011;30077;52.474;13.326;2023-11-19T04:24:34;12.83;;;8.17;;
44358;SDS011;30077;52.474;13.326;2023-11-19T04:34:35;16.50;;;9.27;;
44358;SDS011;30077;52.474;13.326;2023-11-19T04:44:37;12.55;;;8.65;;
44358;SDS011;30077;52.474;13.326;2023-11-19T04:54:44;15.23;;;10.00;;
44358;SDS011;30077;52.474;13.326;2023-11-19T05:04:44;15.10;;;8.57;;
44358;SDS011;30077;52.474;13.326;2023-11-19T05:14:46;17.33;;;10.35;;
44358;SDS011;30077;52.474;13.326;2023-11-19T05:24:50;17.05;;;9.95;;
44358;SDS011;30077;52.474;13.326;2023-11-19T05:34:50;13.65;;;9.27;;
44358;SDS011;30077;52.474;13.326;2023-11-19T05:44:51;14.23;;;9.23;;
44358;SDS011;30077;52.474;13.326;2023-11-19T05:54:52;13.63;;;8.70;;
44358;SDS011;30077;52.474;13.326;2023-11-19T06:04:53;15.77;;;9.23;;
44358;SDS011;30077;52.474;13.326;2023-11-19T06:14:53;15.88;;;9.68;;
44358;SDS011;30077;52.474;13.326;2023-11-19T06:24:54;13.00;;;8.60;;
44358;SDS011;30077;52.474;13.326;2023-11-19T06:34:55;15.45;;;9.50;;
44358;SDS011;30077;52.474;13.326;2023-11-19T06:44:56;15.73;;;9.05;;
44358;SDS011;30077;52.474;13.326;2023-11-19T06:54:59;13.43;;;8.60;;
44358;SDS011;30077;52.474;13.326;2023-11-19T07:05:00;11.75;;;8.18;;
44358;SDS011;30077;52.474;13.326;2023-11-19T07:15:01;12.75;;;8.65;;
44358;SDS011;30077;52.474;13.326;2023-11-19T07:25:03;13.00;;;7.53;;
44358;SDS011;30077;52.474;13.326;2023-11-19T07:35:04;12.90;;;8.45;;
44358;SDS011;30077;52.474;13.326;2023-11-19T07:45:05;14.02;;;9.05;;
44358;SDS011;30077;52.474;13.326;2023-11-19T07:55:07;14.85;;;10.38;;
44358;SDS011;30077;52.474;13.326;2023-11-19T08:05:08;12.40;;;8.65;;
44358;SDS011;30077;52.474;13.326;2023-11-19T08:15:08;14.15;;;8.88;;
44358;SDS011;30077;52.474;13.326;2023-11-19T08:25:09;13.68;;;9.60;;
44358;SDS011;30077;52.474;13.326;2023-11-19T08:35:10;16.02;;;8.80;;
44358;SDS011;30077;52.474;13.326;2023-11-19T08:45:11;13.50;;;8.77;;
44358;SDS011;30077;52.474;13.326;2023-11-19T08:55:11;18.08;;;8.88;;
44358;SDS011;30077;52.474;13.326;2023-11-19T09:05:13;9.25;;;6.75;;
44358;SDS011;30077;52.474;13.326;2023-11-19T09:15:14;9.63;;;6.60;;
44358;SDS011;30077;52.474;13.326;2023-11-19T09:25:14;10.48;;;7.40;;
44358;SDS011;30077;52.474;13.326;2023-11-19T09:35:16;10.73;;;6.50;;
44358;SDS011;30077;52.474;13.326;2023-11-19T09:45:17;8.60;;;5.60;;
44358;SDS011;30077;52.474;13.326;2023-11-19T09:55:21;9.77;;;6.65;;
44358;SDS011;30077;52.474;13.326;2023-11-19T10:05:21;5.60;;;3.88;;
44358;SDS011;30077;52.474;13.326;2023-11-19T10:15:24;8.57;;;3.38;;
44358;SDS011;30077;52.474;13.326;2023-11-19T10:25:27;5.95;;;3.65;;
44358;SDS011;30077;52.474;13.326;2023-11-19T10:35:28;16.90;;;6.90;;
44358;SDS011;30077;52.474;13.326;2023-11-19T10:45:29;11.15;;;3.58;;
44358;SDS011;30077;52.474;13.326;2023-11-19T10:55:31;10.88;;;3.58;;
44358;SDS011;30077;52.474;13.326;2023-11-19T11:05:35;12.27;;;3.97;;
44358;SDS011;30077;52.474;13.326;2023-11-19T11:15:38;17.00;;;5.95;;
44358;SDS011;30077;52.474;13.326;2023-11-19T11:25:46;16.70;;;4.47;;
44358;SDS011;30077;52.474;13.326;2023-11-19T11:36:19;13.55;;;4.75;;
44358;SDS011;30077;52.474;13.326;2023-11-19T11:56:37;19.92;;;6.75;;
44358;SDS011;30077;52.474;13.326;2023-11-19T12:06:38;25.02;;;11.07;;
44358;SDS011;30077;52.474;13.326;2023-11-19T12:16:39;17.73;;;5.82;;
44358;SDS011;30077;52.474;13.326;2023-11-19T12:26:40;20.77;;;4.97;;
44358;SDS011;30077;52.474;13.326;2023-11-19T12:36:40;24.95;;;5.55;;
44358;SDS011;30077;52.474;13.326;2023-11-19T12:46:42;27.20;;;6.10;;
44358;SDS011;30077;52.474;13.326;2023-11-19T12:56:51;47.88;;;17.13;;
44358;SDS011;30077;52.474;13.326;2023-11-19T13:06:53;21.27;;;5.70;;
44358;SDS011;30077;52.474;13.326;2023-11-19T13:16:54;28.88;;;6.50;;
44358;SDS011;30077;52.474;13.326;2023-11-19T13:26:54;31.13;;;6.35;;
44358;SDS011;30077;52.474;13.326;2023-11-19T13:36:55;33.38;;;8.13;;
44358;SDS011;30077;52.474;13.326;2023-11-19T13:46:56;32.88;;;6.35;;
44358;SDS011;30077;52.474;13.326;2023-11-19T13:56:57;28.73;;;7.20;;
44358;SDS011;30077;52.474;13.326;2023-11-19T14:06:58;26.77;;;7.00;;
44358;SDS011;30077;52.474;13.326;2023-11-19T14:16:58;25.27;;;7.27;;
44358;SDS011;30077;52.474;13.326;2023-11-19T14:26:59;31.30;;;7.40;;
44358;SDS011;30077;52.474;13.326;2023-11-19T14:37:00;26.55;;;6.32;;
44358;SDS011;30077;52.474;13.326;2023-11-19T14:47:01;30.42;;;7.15;;
44358;SDS011;30077;52.474;13.326;2023-11-19T14:57:02;26.48;;;5.55;;
44358;SDS011;30077;52.474;13.326;2023-11-19T15:07:03;28.70;;;6.55;;
44358;SDS011;30077;52.474;13.326;2023-11-19T15:17:05;31.10;;;7.00;;
44358;SDS011;30077;52.474;13.326;2023-11-19T15:27:08;25.45;;;6.40;;
44358;SDS011;30077;52.474;13.326;2023-11-19T15:37:11;30.98;;;7.72;;
44358;SDS011;30077;52.474;13.326;2023-11-19T15:47:14;43.53;;;8.80;;
44358;SDS011;30077;52.474;13.326;2023-11-19T15:57:14;34.73;;;7.30;;
44358;SDS011;30077;52.474;13.326;2023-11-19T16:07:16;38.65;;;11.35;;
44358;SDS011;30077;52.474;13.326;2023-11-19T16:17:17;29.10;;;8.77;;
44358;SDS011;30077;52.474;13.326;2023-11-19T16:27:18;40.10;;;10.83;;
44358;SDS011;30077;52.474;13.326;2023-11-19T16:37:18;28.55;;;7.40;;
44358;SDS011;30077;52.474;13.326;2023-11-19T16:47:22;31.85;;;9.00;;
44358;SDS011;30077;52.474;13.326;2023-11-19T16:57:23;30.17;;;9.57;;
44358;SDS011;30077;52.474;13.326;2023-11-19T17:07:24;28.13;;;8.90;;
44358;SDS011;30077;52.474;13.326;2023-11-19T17:17:25;33.13;;;9.90;;
44358;SDS011;30077;52.474;13.326;2023-11-19T17:27:33;38.42;;;9.45;;
44358;SDS011;30077;52.474;13.326;2023-11-19T17:37:34;33.40;;;10.13;;
44358;SDS011;30077;52.474;13.326;2023-11-19T17:47:34;30.75;;;9.93;;
44358;SDS011;30077;52.474;13.326;2023-11-19T17:57:35;46.90;;;11.63;;
44358;SDS011;30077;52.474;13.326;2023-11-19T18:07:36;42.17;;;10.90;;
44358;SDS011;30077;52.474;13.326;2023-11-19T18:17:37;30.15;;;10.02;;
44358;SDS011;30077;52.474;13.326;2023-11-19T18:27:41;30.30;;;8.55;;
44358;SDS011;30077;52.474;13.326;2023-11-19T18:37:42;29.10;;;8.30;;
44358;SDS011;30077;52.474;13.326;2023-11-19T18:47:43;30.38;;;9.43;;
44358;SDS011;30077;52.474;13.326;2023-11-19T18:57:44;27.60;;;9.20;;
44358;SDS011;30077;52.474;13.326;2023-11-19T19:07:45;30.13;;;10.52;;
44358;SDS011;30077;52.474;13.326;2023-11-19T19:17:45;43.83;;;10.80;;
44358;SDS011;30077;52.474;13.326;2023-11-19T19:27:48;55.25;;;12.68;;
44358;SDS011;30077;52.474;13.326;2023-11-19T19:37:49;42.20;;;11.10;;
44358;SDS011;30077;52.474;13.326;2023-11-19T19:47:50;40.47;;;12.63;;
44358;SDS011;30077;52.474;13.326;2023-11-19T19:57:50;37.10;;;10.27;;
44358;SDS011;30077;52.474;13.326;2023-11-19T20:07:51;43.80;;;11.60;;
44358;SDS011;30077;52.474;13.326;2023-11-19T20:17:53;36.20;;;8.50;;
44358;SDS011;30077;52.474;13.326;2023-11-19T20:27:54;32.47;;;8.70;;
44358;SDS011;30077;52.474;13.326;2023-11-19T20:37:56;32.78;;;8.80;;
44358;SDS011;30077;52.474;13.326;2023-11-19T20:47:57;25.17;;;8.23;;
44358;SDS011;30077;52.474;13.326;2023-11-19T20:57:58;34.08;;;6.72;;
44358;SDS011;30077;52.474;13.326;2023-11-19T21:07:58;28.43;;;6.87;;
44358;SDS011;30077;52.474;13.326;2023-11-19T21:17:59;18.42;;;6.05;;
44358;SDS011;30077;52.474;13.326;2023-11-19T21:28:00;31.67;;;6.25;;
44358;SDS011;30077;52.474;13.326;2023-11-19T21:38:03;25.30;;;6.97;;
44358;SDS011;30077;52.474;13.326;2023-11-19T21:48:03;24.00;;;7.20;;
44358;SDS011;30077;52.474;13.326;2023-11-19T21:58:05;29.27;;;7.47;;
44358;SDS011;30077;52.474;13.326;2023-11-19T22:08:05;14.00;;;5.70;;
44358;SDS011;30077;52.474;13.326;2023-11-19T22:18:10;16.58;;;6.18;;
44358;SDS011;30077;52.474;13.326;2023-11-19T22:28:11;20.73;;;7.43;;
44358;SDS011;30077;52.474;13.326;2023-11-19T22:38:12;14.35;;;5.28;;
44358;SDS011;30077;52.474;13.326;2023-11-19T22:48:13;21.67;;;6.95;;
44358;SDS011;30077;52.474;13.326;2023-11-19T22:58:14;18.87;;;6.03;;
44358;SDS011;30077;52.474;13.326;2023-11-19T23:08:14;24.37;;;7.03;;
44358;SDS011;30077;52.474;13.326;2023-11-19T23:18:15;15.57;;;6.77;;
44358;SDS011;30077;52.474;13.326;2023-11-19T23:28:16;16.92;;;5.78;;
44358;SDS011;30077;52.474;13.326;2023-11-19T23:38:17;19.17;;;5.53;;
44358;SDS011;30077;52.474;13.326;2023-11-19T23:48:18;15.95;;;5.90;;
44358;SDS011;30077;52.474;13.326;2023-11-19T23:58:19;16.60;;;5.40;;
